sensor_id;sensor_type;location;lat;lon;timestamp;pressure;altitude;pressure_sealevel;temperature;humidity
56992;BME280;42885;49.754;18.636;2023-09-08T00:00:19;99026.54;;;17.75;100.00
56992;BME280;42885;49.754;18.636;2023-09-08T00:02:53;99028.46;;;17.84;100.00
56992;BME280;42885;49.754;18.636;2023-09-08T00:05:24;99026.02;;;17.41;100.00
56992;BME280;42885;49.754;18.636;2023-09-08T00:07:55;99031.13;;;17.73;100.00
56992;BME280;42885;49.754;18.636;2023-09-08T00:10:35;99025.58;;;17.70;100.00
56992;BME280;42885;49.754;18.636;2023-09-08T00:13:18;99029.88;;;17.54;100.00
56992;BME280;42885;49.754;18.636;2023-09-08T00:15:55;99030.73;;;17.60;100.00
56992;BME280;42885;49.754;18.636;2023-09-08T00:18:25;99028.45;;;17.50;100.00
56992;BME280;42885;49.754;18.636;2023-09-08T00:21:02;99029.77;;;17.67;100.00
56992;BME280;42885;49.754;18.636;2023-09-08T00:23:38;99030.76;;;17.78;100.00
56992;BME280;42885;49.754;18.636;2023-09-08T00:26:15;99032.91;;;17.78;100.00
56992;BME280;42885;49.754;18.636;2023-09-08T00:29:04;99031.45;;;17.91;100.00
56992;BME280;42885;49.754;18.636;2023-09-08T00:31:51;99026.06;;;17.87;100.00
56992;BME280;42885;49.754;18.636;2023-09-08T00:34:22;99030.27;;;17.89;100.00
56992;BME280;42885;49.754;18.636;2023-09-08T00:36:53;99028.56;;;17.54;100.00
56992;BME280;42885;49.754;18.636;2023-09-08T00:39:24;99032.36;;;17.16;100.00
56992;BME280;42885;49.754;18.636;2023-09-08T00:42:03;99032.63;;;17.30;100.00
56992;BME280;42885;49.754;18.636;2023-09-08T00:44:34;99036.48;;;17.31;100.00
56992;BME280;42885;49.754;18.636;2023-09-08T00:47:05;99031.86;;;17.16;100.00
56992;BME280;42885;49.754;18.636;2023-09-08T00:49:40;99030.48;;;17.41;100.00
56992;BME280;42885;49.754;18.636;2023-09-08T00:52:16;99035.09;;;17.03;100.00
56992;BME280;42885;49.754;18.636;2023-09-08T00:54:59;99031.63;;;16.84;100.00
56992;BME280;42885;49.754;18.636;2023-09-08T00:57:33;99029.09;;;16.88;100.00
56992;BME280;42885;49.754;18.636;2023-09-08T01:00:05;99029.94;;;16.83;100.00
56992;BME280;42885;49.754;18.636;2023-09-08T01:02:38;99029.66;;;17.04;100.00
56992;BME280;42885;49.754;18.636;2023-09-08T01:05:09;99026.66;;;17.03;100.00
56992;BME280;42885;49.754;18.636;2023-09-08T01:07:56;99028.05;;;17.26;100.00
56992;BME280;42885;49.754;18.636;2023-09-08T01:10:29;99027.77;;;17.06;100.00
56992;BME280;42885;49.754;18.636;2023-09-08T01:13:00;99026.36;;;17.19;100.00
56992;BME280;42885;49.754;18.636;2023-09-08T01:15:31;99025.30;;;17.33;100.00
56992;BME280;42885;49.754;18.636;2023-09-08T01:18:09;99026.71;;;17.15;100.00
56992;BME280;42885;49.754;18.636;2023-09-08T01:20:52;99030.90;;;17.17;100.00
56992;BME280;42885;49.754;18.636;2023-09-08T01:23:38;99025.70;;;17.04;100.00
56992;BME280;42885;49.754;18.636;2023-09-08T01:26:13;99026.70;;;16.85;100.00
56992;BME280;42885;49.754;18.636;2023-09-08T01:28:46;99014.44;;;16.84;100.00
56992;BME280;42885;49.754;18.636;2023-09-08T01:31:21;99014.44;;;16.84;100.00
56992;BME280;42885;49.754;18.636;2023-09-08T01:33:55;99028.43;;;16.67;100.00
56992;BME280;42885;49.754;18.636;2023-09-08T01:36:27;99036.80;;;16.61;100.00
56992;BME280;42885;49.754;18.636;2023-09-08T01:39:10;99032.99;;;16.65;100.00
56992;BME280;42885;49.754;18.636;2023-09-08T01:41:40;99027.59;;;16.72;100.00
56992;BME280;42885;49.754;18.636;2023-09-08T01:44:11;99032.75;;;16.68;100.00
56992;BME280;42885;49.754;18.636;2023-09-08T01:47:01;99031.28;;;16.64;100.00
56992;BME280;42885;49.754;18.636;2023-09-08T01:49:38;99031.19;;;16.71;100.00
56992;BME280;42885;49.754;18.636;2023-09-08T01:52:08;99030.85;;;16.46;100.00
56992;BME280;42885;49.754;18.636;2023-09-08T01:54:42;99037.43;;;16.40;100.00
56992;BME280;42885;49.754;18.636;2023-09-08T01:57:19;99025.97;;;16.58;100.00
56992;BME280;42885;49.754;18.636;2023-09-08T01:59:50;99019.55;;;16.68;100.00
56992;BME280;42885;49.754;18.636;2023-09-08T02:02:21;99028.47;;;16.48;100.00
56992;BME280;42885;49.754;18.636;2023-09-08T02:04:58;99025.27;;;16.62;100.00
56992;BME280;42885;49.754;18.636;2023-09-08T02:07:33;99025.69;;;16.69;100.00
56992;BME280;42885;49.754;18.636;2023-09-08T02:10:04;99032.41;;;16.73;100.00
56992;BME280;42885;49.754;18.636;2023-09-08T02:12:36;99024.93;;;16.67;100.00
56992;BME280;42885;49.754;18.636;2023-09-08T02:15:13;99024.88;;;17.10;100.00
56992;BME280;42885;49.754;18.636;2023-09-08T02:17:45;99030.61;;;16.24;100.00
56992;BME280;42885;49.754;18.636;2023-09-08T02:20:24;99025.03;;;16.16;100.00
56992;BME280;42885;49.754;18.636;2023-09-08T02:23:06;99029.00;;;16.16;100.00
56992;BME280;42885;49.754;18.636;2023-09-08T02:25:37;99028.00;;;16.30;100.00
56992;BME280;42885;49.754;18.636;2023-09-08T02:28:08;99027.21;;;16.22;100.00
56992;BME280;42885;49.754;18.636;2023-09-08T02:30:45;99028.18;;;16.40;100.00
56992;BME280;42885;49.754;18.636;2023-09-08T02:33:16;99033.45;;;16.21;100.00
56992;BME280;42885;49.754;18.636;2023-09-08T02:35:47;99026.72;;;15.99;100.00
56992;BME280;42885;49.754;18.636;2023-09-08T02:38:18;99029.27;;;16.06;100.00
56992;BME280;42885;49.754;18.636;2023-09-08T02:40:56;99031.90;;;16.19;100.00
56992;BME280;42885;49.754;18.636;2023-09-08T02:43:37;99036.75;;;16.12;100.00
56992;BME280;42885;49.754;18.636;2023-09-08T02:46:08;99030.35;;;16.03;100.00
56992;BME280;42885;49.754;18.636;2023-09-08T02:48:47;99030.35;;;16.03;100.00
56992;BME280;42885;49.754;18.636;2023-09-08T02:51:24;99027.00;;;15.81;100.00
56992;BME280;42885;49.754;18.636;2023-09-08T02:53:55;99023.47;;;16.38;100.00
56992;BME280;42885;49.754;18.636;2023-09-08T02:56:27;99025.59;;;16.27;100.00
56992;BME280;42885;49.754;18.636;2023-09-08T02:59:16;99025.23;;;16.13;100.00
56992;BME280;42885;49.754;18.636;2023-09-08T03:01:47;99025.36;;;16.30;100.00
56992;BME280;42885;49.754;18.636;2023-09-08T03:04:18;99014.00;;;16.65;100.00
56992;BME280;42885;49.754;18.636;2023-09-08T03:07:00;99020.92;;;16.55;100.00
56992;BME280;42885;49.754;18.636;2023-09-08T03:09:31;99022.70;;;17.09;100.00
56992;BME280;42885;49.754;18.636;2023-09-08T03:12:04;99017.47;;;16.17;100.00
56992;BME280;42885;49.754;18.636;2023-09-08T03:14:37;99012.92;;;15.88;100.00
56992;BME280;42885;49.754;18.636;2023-09-08T03:17:15;99017.81;;;15.94;100.00
56992;BME280;42885;49.754;18.636;2023-09-08T03:19:50;99019.58;;;16.49;100.00
56992;BME280;42885;49.754;18.636;2023-09-08T03:22:21;99016.75;;;16.15;100.00
56992;BME280;42885;49.754;18.636;2023-09-08T03:24:55;99013.95;;;15.92;100.00
56992;BME280;42885;49.754;18.636;2023-09-08T03:27:26;99018.85;;;15.78;100.00
56992;BME280;42885;49.754;18.636;2023-09-08T03:29:57;99014.20;;;16.14;100.00
56992;BME280;42885;49.754;18.636;2023-09-08T03:32:32;99019.27;;;16.35;100.00
56992;BME280;42885;49.754;18.636;2023-09-08T03:35:07;99005.44;;;16.56;100.00
56992;BME280;42885;49.754;18.636;2023-09-08T03:37:41;99007.95;;;16.52;100.00
56992;BME280;42885;49.754;18.636;2023-09-08T03:40:13;99010.13;;;16.34;100.00
56992;BME280;42885;49.754;18.636;2023-09-08T03:42:53;99005.36;;;16.20;100.00
56992;BME280;42885;49.754;18.636;2023-09-08T03:45:24;99000.96;;;15.63;100.00
56992;BME280;42885;49.754;18.636;2023-09-08T03:47:55;98997.48;;;15.76;100.00
56992;BME280;42885;49.754;18.636;2023-09-08T03:50:29;98998.11;;;15.79;100.00
56992;BME280;42885;49.754;18.636;2023-09-08T03:53:00;98998.47;;;16.12;100.00
56992;BME280;42885;49.754;18.636;2023-09-08T03:55:50;98997.05;;;16.14;100.00
56992;BME280;42885;49.754;18.636;2023-09-08T03:58:21;98998.47;;;15.93;100.00
56992;BME280;42885;49.754;18.636;2023-09-08T04:00:52;98994.31;;;15.89;100.00
56992;BME280;42885;49.754;18.636;2023-09-08T04:03:22;98993.98;;;15.75;100.00
56992;BME280;42885;49.754;18.636;2023-09-08T04:05:53;98991.73;;;15.50;100.00
56992;BME280;42885;49.754;18.636;2023-09-08T04:08:24;98986.52;;;15.69;100.00
56992;BME280;42885;49.754;18.636;2023-09-08T04:10:55;98995.73;;;15.82;100.00
56992;BME280;42885;49.754;18.636;2023-09-08T04:13:26;98992.01;;;15.85;100.00
56992;BME280;42885;49.754;18.636;2023-09-08T04:16:03;98997.17;;;15.67;100.00
56992;BME280;42885;49.754;18.636;2023-09-08T04:18:34;98995.89;;;15.73;100.00
56992;BME280;42885;49.754;18.636;2023-09-08T04:21:07;98998.27;;;15.71;100.00
56992;BME280;42885;49.754;18.636;2023-09-08T04:23:44;98997.81;;;16.03;100.00
56992;BME280;42885;49.754;18.636;2023-09-08T04:26:23;99001.38;;;15.83;100.00
56992;BME280;42885;49.754;18.636;2023-09-08T04:28:57;99003.91;;;15.72;100.00
56992;BME280;42885;49.754;18.636;2023-09-08T04:31:27;99004.21;;;15.80;100.00
56992;BME280;42885;49.754;18.636;2023-09-08T04:34:07;99007.25;;;15.42;100.00
56992;BME280;42885;49.754;18.636;2023-09-08T04:36:43;99000.88;;;15.39;100.00
56992;BME280;42885;49.754;18.636;2023-09-08T04:39:16;99001.20;;;15.79;100.00
56992;BME280;42885;49.754;18.636;2023-09-08T04:41:46;98998.94;;;16.55;100.00
56992;BME280;42885;49.754;18.636;2023-09-08T04:44:20;98996.16;;;15.76;100.00
56992;BME280;42885;49.754;18.636;2023-09-08T04:46:53;99006.81;;;15.74;100.00
56992;BME280;42885;49.754;18.636;2023-09-08T04:49:24;99012.83;;;16.02;100.00
56992;BME280;42885;49.754;18.636;2023-09-08T04:52:01;99010.25;;;16.14;100.00
56992;BME280;42885;49.754;18.636;2023-09-08T04:54:43;99005.80;;;16.14;100.00
56992;BME280;42885;49.754;18.636;2023-09-08T04:57:21;99006.12;;;16.09;100.00
56992;BME280;42885;49.754;18.636;2023-09-08T05:00:08;99007.05;;;16.21;100.00
56992;BME280;42885;49.754;18.636;2023-09-08T05:02:39;99011.94;;;16.39;100.00
56992;BME280;42885;49.754;18.636;2023-09-08T05:05:10;99013.59;;;16.53;100.00
56992;BME280;42885;49.754;18.636;2023-09-08T05:07:41;99017.30;;;16.50;100.00
56992;BME280;42885;49.754;18.636;2023-09-08T05:10:23;99010.66;;;16.69;100.00
56992;BME280;42885;49.754;18.636;2023-09-08T05:13:04;99009.93;;;16.67;100.00
56992;BME280;42885;49.754;18.636;2023-09-08T05:15:36;99011.82;;;16.95;100.00
56992;BME280;42885;49.754;18.636;2023-09-08T05:18:12;99007.04;;;17.00;100.00
56992;BME280;42885;49.754;18.636;2023-09-08T05:21:01;99011.97;;;16.99;100.00
56992;BME280;42885;49.754;18.636;2023-09-08T05:23:51;99005.05;;;17.10;100.00
56992;BME280;42885;49.754;18.636;2023-09-08T05:26:38;99014.66;;;17.11;100.00
56992;BME280;42885;49.754;18.636;2023-09-08T05:29:18;99012.18;;;17.32;100.00
56992;BME280;42885;49.754;18.636;2023-09-08T05:31:54;99011.11;;;17.34;100.00
56992;BME280;42885;49.754;18.636;2023-09-08T05:34:45;99013.34;;;17.16;100.00
56992;BME280;42885;49.754;18.636;2023-09-08T05:37:20;99011.97;;;17.46;100.00
56992;BME280;42885;49.754;18.636;2023-09-08T05:39:52;99016.32;;;17.65;100.00
56992;BME280;42885;49.754;18.636;2023-09-08T05:42:27;99019.43;;;17.70;100.00
56992;BME280;42885;49.754;18.636;2023-09-08T05:45:01;99017.52;;;17.78;100.00
56992;BME280;42885;49.754;18.636;2023-09-08T05:47:36;99022.19;;;17.63;100.00
56992;BME280;42885;49.754;18.636;2023-09-08T05:50:07;99015.11;;;17.52;100.00
56992;BME280;42885;49.754;18.636;2023-09-08T05:52:38;99015.58;;;17.85;100.00
56992;BME280;42885;49.754;18.636;2023-09-08T05:55:09;99012.69;;;18.23;100.00
56992;BME280;42885;49.754;18.636;2023-09-08T05:57:40;99018.20;;;18.31;100.00
56992;BME280;42885;49.754;18.636;2023-09-08T06:00:11;99021.77;;;18.47;100.00
56992;BME280;42885;49.754;18.636;2023-09-08T06:02:47;99009.31;;;18.59;100.00
56992;BME280;42885;49.754;18.636;2023-09-08T06:05:21;99017.19;;;18.82;100.00
56992;BME280;42885;49.754;18.636;2023-09-08T06:07:52;99015.30;;;18.99;100.00
56992;BME280;42885;49.754;18.636;2023-09-08T06:10:25;99000.45;;;19.24;100.00
56992;BME280;42885;49.754;18.636;2023-09-08T06:12:56;99004.22;;;19.43;100.00
56992;BME280;42885;49.754;18.636;2023-09-08T06:15:33;99005.91;;;19.38;100.00
56992;BME280;42885;49.754;18.636;2023-09-08T06:18:04;99000.84;;;19.72;100.00
56992;BME280;42885;49.754;18.636;2023-09-08T06:20:36;99002.03;;;19.89;100.00
56992;BME280;42885;49.754;18.636;2023-09-08T06:23:06;99004.83;;;20.13;100.00
56992;BME280;42885;49.754;18.636;2023-09-08T06:25:38;99001.95;;;20.26;100.00
56992;BME280;42885;49.754;18.636;2023-09-08T06:28:09;98998.91;;;20.25;100.00
56992;BME280;42885;49.754;18.636;2023-09-08T06:30:42;99001.81;;;20.57;100.00
56992;BME280;42885;49.754;18.636;2023-09-08T06:33:15;98997.20;;;20.69;100.00
56992;BME280;42885;49.754;18.636;2023-09-08T06:35:50;98998.54;;;20.98;100.00
56992;BME280;42885;49.754;18.636;2023-09-08T06:38:29;99001.84;;;20.96;100.00
56992;BME280;42885;49.754;18.636;2023-09-08T06:41:01;98996.91;;;21.11;100.00
56992;BME280;42885;49.754;18.636;2023-09-08T06:43:32;98995.45;;;21.03;100.00
56992;BME280;42885;49.754;18.636;2023-09-08T06:46:04;98996.16;;;21.29;100.00
56992;BME280;42885;49.754;18.636;2023-09-08T06:48:36;98994.68;;;21.40;100.00
56992;BME280;42885;49.754;18.636;2023-09-08T06:51:10;98997.70;;;21.55;100.00
56992;BME280;42885;49.754;18.636;2023-09-08T06:53:43;98998.91;;;21.81;100.00
56992;BME280;42885;49.754;18.636;2023-09-08T06:56:15;98996.03;;;21.92;100.00
56992;BME280;42885;49.754;18.636;2023-09-08T06:58:46;99002.92;;;21.99;100.00
56992;BME280;42885;49.754;18.636;2023-09-08T07:01:17;98995.61;;;22.29;100.00
56992;BME280;42885;49.754;18.636;2023-09-08T07:03:48;99001.55;;;22.09;100.00
56992;BME280;42885;49.754;18.636;2023-09-08T07:06:24;99002.74;;;22.57;100.00
56992;BME280;42885;49.754;18.636;2023-09-08T07:08:58;99003.84;;;22.90;100.00
56992;BME280;42885;49.754;18.636;2023-09-08T07:11:29;99002.41;;;22.96;100.00
56992;BME280;42885;49.754;18.636;2023-09-08T07:14:18;99003.02;;;23.12;99.34
56992;BME280;42885;49.754;18.636;2023-09-08T07:16:51;99007.02;;;23.30;96.27
56992;BME280;42885;49.754;18.636;2023-09-08T07:19:22;98999.48;;;23.56;94.87
56992;BME280;42885;49.754;18.636;2023-09-08T07:21:53;99002.73;;;23.42;92.95
56992;BME280;42885;49.754;18.636;2023-09-08T07:24:24;99001.82;;;23.94;96.62
56992;BME280;42885;49.754;18.636;2023-09-08T07:26:55;99003.83;;;23.96;88.21
56992;BME280;42885;49.754;18.636;2023-09-08T07:29:26;99005.06;;;24.10;87.61
56992;BME280;42885;49.754;18.636;2023-09-08T07:31:59;99003.78;;;24.23;88.23
56992;BME280;42885;49.754;18.636;2023-09-08T07:34:48;99003.77;;;24.27;85.61
56992;BME280;42885;49.754;18.636;2023-09-08T07:37:21;99001.13;;;24.43;86.32
56992;BME280;42885;49.754;18.636;2023-09-08T07:39:55;98999.48;;;24.59;83.12
56992;BME280;42885;49.754;18.636;2023-09-08T07:42:26;99003.68;;;24.57;88.04
56992;BME280;42885;49.754;18.636;2023-09-08T07:45:15;98999.17;;;24.70;87.24
56992;BME280;42885;49.754;18.636;2023-09-08T07:47:47;99000.50;;;24.74;86.76
56992;BME280;42885;49.754;18.636;2023-09-08T07:50:25;99000.34;;;24.68;83.25
56992;BME280;42885;49.754;18.636;2023-09-08T07:53:10;98999.84;;;25.01;83.08
56992;BME280;42885;49.754;18.636;2023-09-08T07:55:47;98990.13;;;25.17;77.77
56992;BME280;42885;49.754;18.636;2023-09-08T07:58:18;98993.00;;;25.07;86.52
56992;BME280;42885;49.754;18.636;2023-09-08T08:00:51;98992.48;;;25.20;77.88
56992;BME280;42885;49.754;18.636;2023-09-08T08:03:27;98995.78;;;25.39;77.96
56992;BME280;42885;49.754;18.636;2023-09-08T08:05:58;98999.80;;;25.39;76.02
56992;BME280;42885;49.754;18.636;2023-09-08T08:08:38;98992.60;;;25.31;78.22
56992;BME280;42885;49.754;18.636;2023-09-08T08:11:19;98996.01;;;25.77;76.19
56992;BME280;42885;49.754;18.636;2023-09-08T08:14:01;98993.81;;;25.81;76.67
56992;BME280;42885;49.754;18.636;2023-09-08T08:16:32;98995.12;;;25.93;75.41
56992;BME280;42885;49.754;18.636;2023-09-08T08:19:03;98995.45;;;26.30;74.40
56992;BME280;42885;49.754;18.636;2023-09-08T08:21:37;98988.00;;;26.09;74.06
56992;BME280;42885;49.754;18.636;2023-09-08T08:24:11;98995.20;;;26.13;74.77
56992;BME280;42885;49.754;18.636;2023-09-08T08:26:41;98987.69;;;26.35;74.15
56992;BME280;42885;49.754;18.636;2023-09-08T08:29:12;98991.31;;;26.23;73.04
56992;BME280;42885;49.754;18.636;2023-09-08T08:31:43;98990.95;;;26.50;72.71
56992;BME280;42885;49.754;18.636;2023-09-08T08:34:14;98988.80;;;26.49;69.47
56992;BME280;42885;49.754;18.636;2023-09-08T08:36:54;98989.31;;;26.68;71.25
56992;BME280;42885;49.754;18.636;2023-09-08T08:39:43;98987.80;;;26.70;69.25
56992;BME280;42885;49.754;18.636;2023-09-08T08:42:14;98976.95;;;26.39;68.12
56992;BME280;42885;49.754;18.636;2023-09-08T08:44:51;98982.30;;;26.63;67.64
56992;BME280;42885;49.754;18.636;2023-09-08T08:47:21;98978.61;;;26.83;68.95
56992;BME280;42885;49.754;18.636;2023-09-08T08:50:03;98973.74;;;27.06;66.41
56992;BME280;42885;49.754;18.636;2023-09-08T08:52:40;98974.89;;;26.88;65.94
56992;BME280;42885;49.754;18.636;2023-09-08T08:55:14;98970.29;;;26.97;65.65
56992;BME280;42885;49.754;18.636;2023-09-08T08:58:03;98972.36;;;26.68;66.70
56992;BME280;42885;49.754;18.636;2023-09-08T09:00:37;98971.86;;;26.91;66.41
56992;BME280;42885;49.754;18.636;2023-09-08T09:03:15;98970.10;;;27.18;65.44
56992;BME280;42885;49.754;18.636;2023-09-08T09:05:57;98972.00;;;27.13;64.22
56992;BME280;42885;49.754;18.636;2023-09-08T09:08:32;98967.73;;;28.42;65.31
56992;BME280;42885;49.754;18.636;2023-09-08T09:11:21;98962.49;;;27.56;57.12
56992;BME280;42885;49.754;18.636;2023-09-08T09:14:08;98973.88;;;27.28;57.46
56992;BME280;42885;49.754;18.636;2023-09-08T09:16:43;98977.20;;;27.15;54.57
56992;BME280;42885;49.754;18.636;2023-09-08T09:19:21;98969.72;;;27.06;54.79
56992;BME280;42885;49.754;18.636;2023-09-08T09:21:57;98967.23;;;26.81;56.56
56992;BME280;42885;49.754;18.636;2023-09-08T09:24:39;98966.16;;;27.25;54.93
56992;BME280;42885;49.754;18.636;2023-09-08T09:27:22;98964.80;;;27.59;54.15
56992;BME280;42885;49.754;18.636;2023-09-08T09:30:04;98961.66;;;27.70;53.72
56992;BME280;42885;49.754;18.636;2023-09-08T09:32:35;98957.09;;;27.71;54.09
56992;BME280;42885;49.754;18.636;2023-09-08T09:35:18;98959.46;;;27.70;54.07
56992;BME280;42885;49.754;18.636;2023-09-08T09:37:49;98952.98;;;27.64;54.19
56992;BME280;42885;49.754;18.636;2023-09-08T09:40:22;98956.31;;;27.66;53.88
56992;BME280;42885;49.754;18.636;2023-09-08T09:43:08;98952.28;;;27.66;53.61
56992;BME280;42885;49.754;18.636;2023-09-08T09:45:40;98954.61;;;27.80;53.49
56992;BME280;42885;49.754;18.636;2023-09-08T09:48:21;98955.74;;;27.86;53.89
56992;BME280;42885;49.754;18.636;2023-09-08T09:50:54;98957.61;;;27.96;52.43
56992;BME280;42885;49.754;18.636;2023-09-08T09:53:25;98956.59;;;27.97;51.83
56992;BME280;42885;49.754;18.636;2023-09-08T09:56:02;98955.56;;;29.25;48.08
56992;BME280;42885;49.754;18.636;2023-09-08T09:58:37;98955.56;;;29.25;48.08
56992;BME280;42885;49.754;18.636;2023-09-08T10:01:10;98953.86;;;28.99;48.83
56992;BME280;42885;49.754;18.636;2023-09-08T10:03:41;98953.24;;;29.33;48.39
56992;BME280;42885;49.754;18.636;2023-09-08T10:06:13;98952.73;;;29.69;45.17
56992;BME280;42885;49.754;18.636;2023-09-08T10:08:54;98948.47;;;29.46;46.92
56992;BME280;42885;49.754;18.636;2023-09-08T10:11:41;98950.34;;;30.59;49.65
56992;BME280;42885;49.754;18.636;2023-09-08T10:14:28;98949.59;;;29.65;49.36
56992;BME280;42885;49.754;18.636;2023-09-08T10:17:21;98952.22;;;28.88;49.77
56992;BME280;42885;49.754;18.636;2023-09-08T10:20:01;98952.45;;;29.39;48.56
56992;BME280;42885;49.754;18.636;2023-09-08T10:22:35;98951.73;;;29.41;47.71
56992;BME280;42885;49.754;18.636;2023-09-08T10:25:08;98951.17;;;29.35;47.30
56992;BME280;42885;49.754;18.636;2023-09-08T10:27:40;98945.70;;;29.81;48.78
56992;BME280;42885;49.754;18.636;2023-09-08T10:30:12;98941.99;;;30.13;48.67
56992;BME280;42885;49.754;18.636;2023-09-08T10:32:52;98953.91;;;30.08;47.70
56992;BME280;42885;49.754;18.636;2023-09-08T10:35:25;98941.80;;;30.15;46.69
56992;BME280;42885;49.754;18.636;2023-09-08T10:38:27;98945.11;;;30.10;47.10
56992;BME280;42885;49.754;18.636;2023-09-08T10:44:01;98938.80;;;30.20;46.60
56992;BME280;42885;49.754;18.636;2023-09-08T10:46:37;98937.05;;;30.37;46.30
56992;BME280;42885;49.754;18.636;2023-09-08T10:49:13;98927.19;;;29.95;47.49
56992;BME280;42885;49.754;18.636;2023-09-08T10:52:09;98932.97;;;30.24;46.21
56992;BME280;42885;49.754;18.636;2023-09-08T10:54:52;98927.36;;;29.80;47.22
56992;BME280;42885;49.754;18.636;2023-09-08T10:57:25;98920.81;;;29.86;47.81
56992;BME280;42885;49.754;18.636;2023-09-08T11:00:00;98927.20;;;30.54;47.35
56992;BME280;42885;49.754;18.636;2023-09-08T11:02:43;98924.70;;;31.06;46.53
56992;BME280;42885;49.754;18.636;2023-09-08T11:05:27;98917.33;;;30.84;44.76
56992;BME280;42885;49.754;18.636;2023-09-08T11:07:58;98913.59;;;30.92;44.86
56992;BME280;42885;49.754;18.636;2023-09-08T11:10:36;98915.31;;;31.09;44.43
56992;BME280;42885;49.754;18.636;2023-09-08T11:13:07;98914.78;;;31.16;45.04
56992;BME280;42885;49.754;18.636;2023-09-08T11:15:38;98914.48;;;31.22;45.07
56992;BME280;42885;49.754;18.636;2023-09-08T11:18:14;98912.59;;;31.36;42.95
56992;BME280;42885;49.754;18.636;2023-09-08T11:20:57;98904.86;;;31.69;41.59
56992;BME280;42885;49.754;18.636;2023-09-08T11:23:28;98904.94;;;31.06;43.19
56992;BME280;42885;49.754;18.636;2023-09-08T11:26:06;98900.42;;;31.36;41.99
56992;BME280;42885;49.754;18.636;2023-09-08T11:28:38;98914.78;;;31.16;41.88
56992;BME280;42885;49.754;18.636;2023-09-08T11:31:11;98909.73;;;31.03;42.11
56992;BME280;42885;49.754;18.636;2023-09-08T11:34:01;98908.42;;;30.76;42.32
56992;BME280;42885;49.754;18.636;2023-09-08T11:36:38;98902.48;;;31.40;42.67
56992;BME280;42885;49.754;18.636;2023-09-08T11:39:09;98899.04;;;32.52;41.94
56992;BME280;42885;49.754;18.636;2023-09-08T11:41:40;98898.95;;;32.85;41.08
56992;BME280;42885;49.754;18.636;2023-09-08T11:44:17;98898.78;;;33.14;38.59
56992;BME280;42885;49.754;18.636;2023-09-08T11:46:51;98901.30;;;32.90;39.73
56992;BME280;42885;49.754;18.636;2023-09-08T11:49:37;98896.17;;;32.91;38.92
56992;BME280;42885;49.754;18.636;2023-09-08T11:52:05;98895.09;;;33.46;38.08
56992;BME280;42885;49.754;18.636;2023-09-08T11:54:36;98895.31;;;33.63;37.78
56992;BME280;42885;49.754;18.636;2023-09-08T11:57:22;98901.80;;;33.43;37.63
56992;BME280;42885;49.754;18.636;2023-09-08T12:00:09;98896.31;;;34.21;38.39
56992;BME280;42885;49.754;18.636;2023-09-08T12:02:48;98897.14;;;34.54;38.58
56992;BME280;42885;49.754;18.636;2023-09-08T12:05:26;98895.02;;;34.68;37.41
56992;BME280;42885;49.754;18.636;2023-09-08T12:07:58;98891.73;;;34.12;37.69
56992;BME280;42885;49.754;18.636;2023-09-08T12:10:47;98891.06;;;34.85;36.86
56992;BME280;42885;49.754;18.636;2023-09-08T12:13:22;98896.08;;;34.55;35.83
56992;BME280;42885;49.754;18.636;2023-09-08T12:15:59;98891.47;;;33.71;37.42
56992;BME280;42885;49.754;18.636;2023-09-08T12:18:49;98882.09;;;34.07;36.65
56992;BME280;42885;49.754;18.636;2023-09-08T12:21:23;98879.30;;;35.33;35.20
56992;BME280;42885;49.754;18.636;2023-09-08T12:24:06;98875.32;;;35.52;33.58
56992;BME280;42885;49.754;18.636;2023-09-08T12:26:39;98876.34;;;34.84;34.75
56992;BME280;42885;49.754;18.636;2023-09-08T12:29:13;98879.68;;;34.29;34.87
56992;BME280;42885;49.754;18.636;2023-09-08T12:32:03;98867.25;;;34.21;35.10
56992;BME280;42885;49.754;18.636;2023-09-08T12:34:37;98868.82;;;35.12;35.22
56992;BME280;42885;49.754;18.636;2023-09-08T12:37:26;98863.24;;;36.38;33.92
56992;BME280;42885;49.754;18.636;2023-09-08T12:40:05;98863.51;;;36.73;32.63
56992;BME280;42885;49.754;18.636;2023-09-08T12:42:42;98866.77;;;36.36;32.54
56992;BME280;42885;49.754;18.636;2023-09-08T12:45:16;98864.91;;;36.22;31.75
56992;BME280;42885;49.754;18.636;2023-09-08T12:48:06;98865.94;;;36.04;32.71
56992;BME280;42885;49.754;18.636;2023-09-08T12:50:38;98863.05;;;35.50;33.62
56992;BME280;42885;49.754;18.636;2023-09-08T12:53:24;98862.31;;;35.13;35.08
56992;BME280;42885;49.754;18.636;2023-09-08T12:56:00;98853.74;;;35.60;34.18
56992;BME280;42885;49.754;18.636;2023-09-08T12:58:37;98858.05;;;36.05;32.84
56992;BME280;42885;49.754;18.636;2023-09-08T13:01:23;98854.55;;;36.39;32.77
56992;BME280;42885;49.754;18.636;2023-09-08T13:03:57;98854.09;;;36.10;34.54
56992;BME280;42885;49.754;18.636;2023-09-08T13:06:28;98849.34;;;35.74;34.47
56992;BME280;42885;49.754;18.636;2023-09-08T13:09:16;98847.97;;;36.37;34.61
56992;BME280;42885;49.754;18.636;2023-09-08T13:11:59;98838.16;;;37.12;34.22
56992;BME280;42885;49.754;18.636;2023-09-08T13:14:33;98843.68;;;36.58;34.37
56992;BME280;42885;49.754;18.636;2023-09-08T13:17:16;98834.20;;;36.83;34.95
56992;BME280;42885;49.754;18.636;2023-09-08T13:20:06;98834.93;;;36.98;33.17
56992;BME280;42885;49.754;18.636;2023-09-08T13:22:37;98838.02;;;37.49;33.33
56992;BME280;42885;49.754;18.636;2023-09-08T13:25:27;98829.38;;;37.55;33.55
56992;BME280;42885;49.754;18.636;2023-09-08T13:28:11;98833.63;;;38.36;32.38
56992;BME280;42885;49.754;18.636;2023-09-08T13:30:50;98823.84;;;37.52;33.51
56992;BME280;42885;49.754;18.636;2023-09-08T13:33:21;98826.61;;;38.12;31.87